sensor_id;sensor_type;location;lat;lon;timestamp;temperature;humidity
2453;DHT22;63678;47.994;7.854;2023-03-23T00:04:16;13.70;99.90
2453;DHT22;63678;47.994;7.854;2023-03-23T00:06:47;13.60;99.90
2453;DHT22;63678;47.994;7.854;2023-03-23T00:09:18;13.60;99.90
2453;DHT22;63678;47.994;7.854;2023-03-23T00:11:54;13.50;99.90
2453;DHT22;63678;47.994;7.854;2023-03-23T00:14:27;13.50;99.90
2453;DHT22;63678;47.994;7.854;2023-03-23T00:16:58;13.50;99.90
2453;DHT22;63678;47.994;7.854;2023-03-23T00:19:30;13.50;99.90
2453;DHT22;63678;47.994;7.854;2023-03-23T00:22:01;13.40;99.90
2453;DHT22;63678;47.994;7.854;2023-03-23T00:27:04;13.20;99.90
2453;DHT22;63678;47.994;7.854;2023-03-23T00:29:35;13.20;99.90
2453;DHT22;63678;47.994;7.854;2023-03-23T00:32:08;13.30;99.90
2453;DHT22;63678;47.994;7.854;2023-03-23T00:34:47;13.60;99.90
2453;DHT22;63678;47.994;7.854;2023-03-23T00:37:20;14.30;99.90
2453;DHT22;63678;47.994;7.854;2023-03-23T00:39:52;14.70;99.90
2453;DHT22;63678;47.994;7.854;2023-03-23T00:44:59;15.30;99.90
2453;DHT22;63678;47.994;7.854;2023-03-23T00:47:31;15.30;99.90
2453;DHT22;63678;47.994;7.854;2023-03-23T00:50:08;15.10;99.90
2453;DHT22;63678;47.994;7.854;2023-03-23T00:52:40;15.00;99.90
2453;DHT22;63678;47.994;7.854;2023-03-23T00:55:11;14.90;99.90
2453;DHT22;63678;47.994;7.854;2023-03-23T00:57:42;14.80;99.90
2453;DHT22;63678;47.994;7.854;2023-03-23T01:00:14;15.20;99.90
2453;DHT22;63678;47.994;7.854;2023-03-23T01:02:46;15.80;99.90
2453;DHT22;63678;47.994;7.854;2023-03-23T01:07:49;16.20;99.90
2453;DHT22;63678;47.994;7.854;2023-03-23T01:12:52;16.20;99.90
2453;DHT22;63678;47.994;7.854;2023-03-23T01:15:27;16.50;99.90
2453;DHT22;63678;47.994;7.854;2023-03-23T01:17:59;16.40;99.90
2453;DHT22;63678;47.994;7.854;2023-03-23T01:20:31;16.60;99.90
2453;DHT22;63678;47.994;7.854;2023-03-23T01:23:03;16.50;99.90
2453;DHT22;63678;47.994;7.854;2023-03-23T01:25:35;16.60;99.90
2453;DHT22;63678;47.994;7.854;2023-03-23T01:28:06;16.60;99.90
2453;DHT22;63678;47.994;7.854;2023-03-23T01:30:38;16.50;99.90
2453;DHT22;63678;47.994;7.854;2023-03-23T01:33:09;16.70;99.90
2453;DHT22;63678;47.994;7.854;2023-03-23T01:35:40;16.70;99.90
2453;DHT22;63678;47.994;7.854;2023-03-23T01:38:11;16.70;99.90
2453;DHT22;63678;47.994;7.854;2023-03-23T01:40:43;16.70;99.90
2453;DHT22;63678;47.994;7.854;2023-03-23T01:43:15;16.60;99.90
2453;DHT22;63678;47.994;7.854;2023-03-23T01:45:48;16.60;99.90
2453;DHT22;63678;47.994;7.854;2023-03-23T01:48:25;16.80;99.90
2453;DHT22;63678;47.994;7.854;2023-03-23T01:51:12;16.90;99.90
2453;DHT22;63678;47.994;7.854;2023-03-23T01:53:51;17.00;99.90
2453;DHT22;63678;47.994;7.854;2023-03-23T01:56:32;16.90;99.90
2453;DHT22;63678;47.994;7.854;2023-03-23T01:59:09;17.00;99.90
2453;DHT22;63678;47.994;7.854;2023-03-23T02:04:17;17.10;99.90
2453;DHT22;63678;47.994;7.854;2023-03-23T02:06:48;17.10;99.90
2453;DHT22;63678;47.994;7.854;2023-03-23T02:09:27;17.10;99.90
2453;DHT22;63678;47.994;7.854;2023-03-23T02:11:58;17.10;99.90
2453;DHT22;63678;47.994;7.854;2023-03-23T02:14:30;17.20;99.90
2453;DHT22;63678;47.994;7.854;2023-03-23T02:17:10;17.30;99.90
2453;DHT22;63678;47.994;7.854;2023-03-23T02:27:01;17.40;99.90
2453;DHT22;63678;47.994;7.854;2023-03-23T02:29:55;17.30;99.90
2453;DHT22;63678;47.994;7.854;2023-03-23T02:39:04;17.50;99.70
2453;DHT22;63678;47.994;7.854;2023-03-23T02:41:43;17.50;99.70
2453;DHT22;63678;47.994;7.854;2023-03-23T02:44:17;17.40;99.70
2453;DHT22;63678;47.994;7.854;2023-03-23T02:46:49;17.40;99.70
2453;DHT22;63678;47.994;7.854;2023-03-23T02:49:22;17.40;99.70
2453;DHT22;63678;47.994;7.854;2023-03-23T02:51:56;17.50;99.60
2453;DHT22;63678;47.994;7.854;2023-03-23T02:54:30;17.40;99.70
2453;DHT22;63678;47.994;7.854;2023-03-23T02:59:35;17.40;99.50
2453;DHT22;63678;47.994;7.854;2023-03-23T03:02:13;17.50;99.40
2453;DHT22;63678;47.994;7.854;2023-03-23T03:05:04;17.50;99.10
2453;DHT22;63678;47.994;7.854;2023-03-23T03:10:35;17.30;99.40
2453;DHT22;63678;47.994;7.854;2023-03-23T03:16:47;17.40;99.20
2453;DHT22;63678;47.994;7.854;2023-03-23T03:19:29;17.60;98.50
2453;DHT22;63678;47.994;7.854;2023-03-23T03:22:04;17.70;98.40
2453;DHT22;63678;47.994;7.854;2023-03-23T03:24:43;17.70;98.40
2453;DHT22;63678;47.994;7.854;2023-03-23T03:27:18;17.70;98.20
2453;DHT22;63678;47.994;7.854;2023-03-23T03:30:11;17.70;98.20
2453;DHT22;63678;47.994;7.854;2023-03-23T03:32:48;17.70;98.30
2453;DHT22;63678;47.994;7.854;2023-03-23T03:38:05;17.70;98.00
2453;DHT22;63678;47.994;7.854;2023-03-23T03:43:12;17.70;98.00
2453;DHT22;63678;47.994;7.854;2023-03-23T03:45:43;17.70;97.90
2453;DHT22;63678;47.994;7.854;2023-03-23T03:48:15;17.80;97.70
2453;DHT22;63678;47.994;7.854;2023-03-23T03:50:47;17.70;97.70
2453;DHT22;63678;47.994;7.854;2023-03-23T03:53:18;17.70;97.80
2453;DHT22;63678;47.994;7.854;2023-03-23T03:55:49;17.60;97.80
2453;DHT22;63678;47.994;7.854;2023-03-23T03:58:22;17.70;97.60
2453;DHT22;63678;47.994;7.854;2023-03-23T04:01:12;17.60;97.70
2453;DHT22;63678;47.994;7.854;2023-03-23T04:03:45;17.70;97.70
2453;DHT22;63678;47.994;7.854;2023-03-23T04:06:27;17.60;97.80
2453;DHT22;63678;47.994;7.854;2023-03-23T04:08:59;17.60;97.70
2453;DHT22;63678;47.994;7.854;2023-03-23T04:11:32;17.60;97.60
2453;DHT22;63678;47.994;7.854;2023-03-23T04:19:29;17.60;97.60
2453;DHT22;63678;47.994;7.854;2023-03-23T04:22:05;17.70;97.50
2453;DHT22;63678;47.994;7.854;2023-03-23T04:27:16;17.70;97.40
2453;DHT22;63678;47.994;7.854;2023-03-23T04:35:14;17.60;97.50
2453;DHT22;63678;47.994;7.854;2023-03-23T04:37:51;17.60;97.50
2453;DHT22;63678;47.994;7.854;2023-03-23T04:40:25;17.60;97.60
2453;DHT22;63678;47.994;7.854;2023-03-23T04:43:15;17.60;97.70
2453;DHT22;63678;47.994;7.854;2023-03-23T04:51:17;17.50;98.10
2453;DHT22;63678;47.994;7.854;2023-03-23T04:53:53;17.40;98.20
2453;DHT22;63678;47.994;7.854;2023-03-23T04:56:25;17.30;98.30
2453;DHT22;63678;47.994;7.854;2023-03-23T04:58:57;17.30;98.30
2453;DHT22;63678;47.994;7.854;2023-03-23T05:01:42;17.40;98.50
2453;DHT22;63678;47.994;7.854;2023-03-23T05:04:22;17.30;98.50
2453;DHT22;63678;47.994;7.854;2023-03-23T05:09:42;17.40;98.40
2453;DHT22;63678;47.994;7.854;2023-03-23T05:14:56;17.20;98.90
2453;DHT22;63678;47.994;7.854;2023-03-23T05:17:30;17.20;98.80
2453;DHT22;63678;47.994;7.854;2023-03-23T05:20:06;17.20;99.00
2453;DHT22;63678;47.994;7.854;2023-03-23T05:28:03;17.00;99.50
2453;DHT22;63678;47.994;7.854;2023-03-23T05:30:55;17.00;99.50
2453;DHT22;63678;47.994;7.854;2023-03-23T05:33:28;16.90;99.70
2453;DHT22;63678;47.994;7.854;2023-03-23T05:36:20;16.80;99.90
2453;DHT22;63678;47.994;7.854;2023-03-23T05:39:12;16.90;99.90
2453;DHT22;63678;47.994;7.854;2023-03-23T05:42:00;16.90;99.90
2453;DHT22;63678;47.994;7.854;2023-03-23T05:44:43;16.80;99.90
2453;DHT22;63678;47.994;7.854;2023-03-23T05:47:15;16.80;99.90
2453;DHT22;63678;47.994;7.854;2023-03-23T05:49:53;16.70;99.90
2453;DHT22;63678;47.994;7.854;2023-03-23T05:52:27;16.70;99.90
2453;DHT22;63678;47.994;7.854;2023-03-23T05:54:58;16.70;99.90
2453;DHT22;63678;47.994;7.854;2023-03-23T05:57:30;16.70;99.90
2453;DHT22;63678;47.994;7.854;2023-03-23T06:02:43;16.60;99.90
2453;DHT22;63678;47.994;7.854;2023-03-23T06:07:55;16.60;99.90
2453;DHT22;63678;47.994;7.854;2023-03-23T06:10:27;16.60;99.90
2453;DHT22;63678;47.994;7.854;2023-03-23T06:13:04;16.50;99.90
2453;DHT22;63678;47.994;7.854;2023-03-23T06:15:47;16.50;99.90
2453;DHT22;63678;47.994;7.854;2023-03-23T06:18:33;16.40;99.90
2453;DHT22;63678;47.994;7.854;2023-03-23T06:21:11;16.30;99.90
2453;DHT22;63678;47.994;7.854;2023-03-23T06:24:03;16.30;99.90
2453;DHT22;63678;47.994;7.854;2023-03-23T06:26:37;16.30;99.90
2453;DHT22;63678;47.994;7.854;2023-03-23T06:31:54;16.20;99.90
2453;DHT22;63678;47.994;7.854;2023-03-23T06:34:30;16.10;99.90
2453;DHT22;63678;47.994;7.854;2023-03-23T06:40:07;16.10;99.90
2453;DHT22;63678;47.994;7.854;2023-03-23T06:42:45;16.20;99.90
2453;DHT22;63678;47.994;7.854;2023-03-23T06:45:28;16.20;99.90
2453;DHT22;63678;47.994;7.854;2023-03-23T06:48:21;16.10;99.90
2453;DHT22;63678;47.994;7.854;2023-03-23T06:53:25;16.20;99.90
2453;DHT22;63678;47.994;7.854;2023-03-23T06:58:33;16.20;99.90
2453;DHT22;63678;47.994;7.854;2023-03-23T07:01:05;16.20;99.90
2453;DHT22;63678;47.994;7.854;2023-03-23T07:03:43;16.20;99.90
2453;DHT22;63678;47.994;7.854;2023-03-23T07:11:30;16.20;99.90
2453;DHT22;63678;47.994;7.854;2023-03-23T07:16:37;16.20;99.90
2453;DHT22;63678;47.994;7.854;2023-03-23T07:19:08;16.20;99.90
2453;DHT22;63678;47.994;7.854;2023-03-23T07:24:12;16.10;99.90
2453;DHT22;63678;47.994;7.854;2023-03-23T07:27:22;16.10;99.90
2453;DHT22;63678;47.994;7.854;2023-03-23T07:35:03;16.00;99.90
2453;DHT22;63678;47.994;7.854;2023-03-23T07:37:43;15.90;99.90
2453;DHT22;63678;47.994;7.854;2023-03-23T07:40:16;15.90;99.90
2453;DHT22;63678;47.994;7.854;2023-03-23T07:42:55;15.70;99.90
2453;DHT22;63678;47.994;7.854;2023-03-23T07:45:43;15.60;99.90
2453;DHT22;63678;47.994;7.854;2023-03-23T07:48:17;15.40;99.90
2453;DHT22;63678;47.994;7.854;2023-03-23T07:50:49;15.40;99.90
2453;DHT22;63678;47.994;7.854;2023-03-23T07:53:21;15.30;99.90
2453;DHT22;63678;47.994;7.854;2023-03-23T07:56:02;15.20;99.90
2453;DHT22;63678;47.994;7.854;2023-03-23T07:58:57;15.10;99.90
2453;DHT22;63678;47.994;7.854;2023-03-23T08:01:28;15.10;99.90
2453;DHT22;63678;47.994;7.854;2023-03-23T08:07:17;15.00;99.90
2453;DHT22;63678;47.994;7.854;2023-03-23T08:10:11;14.90;99.90
2453;DHT22;63678;47.994;7.854;2023-03-23T08:13:18;14.70;99.90
2453;DHT22;63678;47.994;7.854;2023-03-23T08:19:19;14.70;99.90
2453;DHT22;63678;47.994;7.854;2023-03-23T08:22:14;14.60;99.90
2453;DHT22;63678;47.994;7.854;2023-03-23T08:25:03;14.50;99.90
2453;DHT22;63678;47.994;7.854;2023-03-23T08:28:01;14.40;99.90
2453;DHT22;63678;47.994;7.854;2023-03-23T08:30:45;14.40;99.90
2453;DHT22;63678;47.994;7.854;2023-03-23T08:33:38;14.50;99.90
2453;DHT22;63678;47.994;7.854;2023-03-23T08:36:23;14.60;99.90
2453;DHT22;63678;47.994;7.854;2023-03-23T08:39:07;14.50;99.90
2453;DHT22;63678;47.994;7.854;2023-03-23T08:44:55;14.50;99.90
2453;DHT22;63678;47.994;7.854;2023-03-23T08:47:52;14.50;99.90
2453;DHT22;63678;47.994;7.854;2023-03-23T08:50:43;14.60;99.90
2453;DHT22;63678;47.994;7.854;2023-03-23T08:55:52;14.70;99.90
2453;DHT22;63678;47.994;7.854;2023-03-23T09:01:41;14.70;99.90
2453;DHT22;63678;47.994;7.854;2023-03-23T09:04:40;14.80;99.90
2453;DHT22;63678;47.994;7.854;2023-03-23T09:07:35;14.70;99.90
2453;DHT22;63678;47.994;7.854;2023-03-23T09:10:07;14.70;99.90
2453;DHT22;63678;47.994;7.854;2023-03-23T09:12:40;14.70;99.90
2453;DHT22;63678;47.994;7.854;2023-03-23T09:15:16;14.90;99.90
2453;DHT22;63678;47.994;7.854;2023-03-23T09:17:50;14.90;99.90
2453;DHT22;63678;47.994;7.854;2023-03-23T09:20:24;15.10;99.90
2453;DHT22;63678;47.994;7.854;2023-03-23T09:22:57;15.10;99.90
2453;DHT22;63678;47.994;7.854;2023-03-23T09:25:28;15.30;99.90
2453;DHT22;63678;47.994;7.854;2023-03-23T09:28:00;15.40;99.90
2453;DHT22;63678;47.994;7.854;2023-03-23T09:30:32;15.50;99.90
2453;DHT22;63678;47.994;7.854;2023-03-23T09:33:05;15.70;99.90
2453;DHT22;63678;47.994;7.854;2023-03-23T09:35:36;15.80;99.90
2453;DHT22;63678;47.994;7.854;2023-03-23T09:38:10;16.10;99.90
2453;DHT22;63678;47.994;7.854;2023-03-23T09:40:47;16.30;99.90
2453;DHT22;63678;47.994;7.854;2023-03-23T09:47:05;16.40;99.90
2453;DHT22;63678;47.994;7.854;2023-03-23T09:49:59;16.50;99.90
2453;DHT22;63678;47.994;7.854;2023-03-23T09:52:44;16.70;99.90
2453;DHT22;63678;47.994;7.854;2023-03-23T09:55:20;16.70;99.90
2453;DHT22;63678;47.994;7.854;2023-03-23T09:57:59;16.90;99.90
2453;DHT22;63678;47.994;7.854;2023-03-23T10:01:00;16.90;99.90
2453;DHT22;63678;47.994;7.854;2023-03-23T10:03:40;16.90;99.90
2453;DHT22;63678;47.994;7.854;2023-03-23T10:06:16;16.90;99.90
2453;DHT22;63678;47.994;7.854;2023-03-23T10:08:53;17.00;99.90
2453;DHT22;63678;47.994;7.854;2023-03-23T10:11:49;17.10;99.90
2453;DHT22;63678;47.994;7.854;2023-03-23T10:14:46;17.20;99.90
2453;DHT22;63678;47.994;7.854;2023-03-23T10:20:53;17.10;99.90
2453;DHT22;63678;47.994;7.854;2023-03-23T10:23:59;17.20;99.90
2453;DHT22;63678;47.994;7.854;2023-03-23T10:29:36;17.70;99.90
2453;DHT22;63678;47.994;7.854;2023-03-23T10:34:58;18.00;99.90
2453;DHT22;63678;47.994;7.854;2023-03-23T10:37:36;18.30;99.90
2453;DHT22;63678;47.994;7.854;2023-03-23T10:40:15;18.30;99.90
2453;DHT22;63678;47.994;7.854;2023-03-23T10:42:48;18.50;99.90
2453;DHT22;63678;47.994;7.854;2023-03-23T10:45:22;18.40;99.90
2453;DHT22;63678;47.994;7.854;2023-03-23T10:48:37;18.10;99.90
2453;DHT22;63678;47.994;7.854;2023-03-23T10:51:09;17.90;99.90
2453;DHT22;63678;47.994;7.854;2023-03-23T10:53:44;18.00;99.90
2453;DHT22;63678;47.994;7.854;2023-03-23T10:56:44;18.10;99.90
2453;DHT22;63678;47.994;7.854;2023-03-23T10:59:29;18.20;99.90
2453;DHT22;63678;47.994;7.854;2023-03-23T11:02:14;18.10;99.90
2453;DHT22;63678;47.994;7.854;2023-03-23T11:05:00;18.00;99.90
2453;DHT22;63678;47.994;7.854;2023-03-23T11:07:35;18.10;99.90
2453;DHT22;63678;47.994;7.854;2023-03-23T11:10:17;18.30;99.90
2453;DHT22;63678;47.994;7.854;2023-03-23T11:12:56;18.40;99.90
2453;DHT22;63678;47.994;7.854;2023-03-23T11:15:32;18.60;99.90
2453;DHT22;63678;47.994;7.854;2023-03-23T11:18:11;18.70;99.90
2453;DHT22;63678;47.994;7.854;2023-03-23T11:21:13;18.70;99.90
2453;DHT22;63678;47.994;7.854;2023-03-23T11:23:57;18.50;99.90
2453;DHT22;63678;47.994;7.854;2023-03-23T11:26:32;18.30;99.90
2453;DHT22;63678;47.994;7.854;2023-03-23T11:29:12;18.40;99.90
2453;DHT22;63678;47.994;7.854;2023-03-23T11:32:03;18.40;99.90
2453;DHT22;63678;47.994;7.854;2023-03-23T11:34:44;18.10;99.90
2453;DHT22;63678;47.994;7.854;2023-03-23T11:37:32;18.30;99.90
2453;DHT22;63678;47.994;7.854;2023-03-23T11:40:20;18.60;99.90
2453;DHT22;63678;47.994;7.854;2023-03-23T11:43:01;19.00;99.90
2453;DHT22;63678;47.994;7.854;2023-03-23T11:45:51;19.30;99.90
2453;DHT22;63678;47.994;7.854;2023-03-23T11:51:39;19.00;99.90
2453;DHT22;63678;47.994;7.854;2023-03-23T11:54:24;19.10;99.90
2453;DHT22;63678;47.994;7.854;2023-03-23T11:57:00;19.00;99.90
2453;DHT22;63678;47.994;7.854;2023-03-23T11:59:33;18.90;99.90
2453;DHT22;63678;47.994;7.854;2023-03-23T12:02:23;19.40;99.90
2453;DHT22;63678;47.994;7.854;2023-03-23T12:08:59;19.60;99.90
2453;DHT22;63678;47.994;7.854;2023-03-23T12:14:47;19.30;99.90
2453;DHT22;63678;47.994;7.854;2023-03-23T12:20:57;19.30;99.90
2453;DHT22;63678;47.994;7.854;2023-03-23T12:23:35;19.30;99.90
2453;DHT22;63678;47.994;7.854;2023-03-23T12:26:25;19.10;99.90
2453;DHT22;63678;47.994;7.854;2023-03-23T12:29:30;19.10;99.90
2453;DHT22;63678;47.994;7.854;2023-03-23T12:35:36;18.70;99.90
2453;DHT22;63678;47.994;7.854;2023-03-23T12:39:02;18.70;99.90
2453;DHT22;63678;47.994;7.854;2023-03-23T12:41:49;18.40;99.90
2453;DHT22;63678;47.994;7.854;2023-03-23T12:44:35;18.40;99.90
2453;DHT22;63678;47.994;7.854;2023-03-23T12:47:41;18.40;99.90
2453;DHT22;63678;47.994;7.854;2023-03-23T12:55:45;18.40;99.90
2453;DHT22;63678;47.994;7.854;2023-03-23T12:58:23;18.30;99.90
2453;DHT22;63678;47.994;7.854;2023-03-23T13:01:08;18.30;99.90
2453;DHT22;63678;47.994;7.854;2023-03-23T13:06:48;18.10;99.90
2453;DHT22;63678;47.994;7.854;2023-03-23T13:12:04;18.20;99.90
2453;DHT22;63678;47.994;7.854;2023-03-23T13:17:54;18.20;99.90
2453;DHT22;63678;47.994;7.854;2023-03-23T13:20:53;18.20;99.90
2453;DHT22;63678;47.994;7.854;2023-03-23T13:23:41;18.10;99.90
2453;DHT22;63678;47.994;7.854;2023-03-23T13:26:18;18.10;99.90
2453;DHT22;63678;47.994;7.854;2023-03-23T13:29:11;18.00;99.90
2453;DHT22;63678;47.994;7.854;2023-03-23T13:31:45;18.00;99.90
2453;DHT22;63678;47.994;7.854;2023-03-23T13:34:25;18.00;99.90
2453;DHT22;63678;47.994;7.854;2023-03-23T13:37:03;18.20;99.90
2453;DHT22;63678;47.994;7.854;2023-03-23T13:39:38;18.30;99.90
2453;DHT22;63678;47.994;7.854;2023-03-23T13:42:25;18.30;99.90
2453;DHT22;63678;47.994;7.854;2023-03-23T13:48:24;18.60;99.90
2453;DHT22;63678;47.994;7.854;2023-03-23T13:51:00;18.70;99.90
2453;DHT22;63678;47.994;7.854;2023-03-23T13:53:44;18.50;99.90
2453;DHT22;63678;47.994;7.854;2023-03-23T13:56:20;18.30;99.90
2453;DHT22;63678;47.994;7.854;2023-03-23T13:59:13;18.30;99.90
2453;DHT22;63678;47.994;7.854;2023-03-23T14:04:19;18.10;99.90
2453;DHT22;63678;47.994;7.854;2023-03-23T14:06:51;18.10;99.90
2453;DHT22;63678;47.994;7.854;2023-03-23T14:09:32;18.00;99.90
2453;DHT22;63678;47.994;7.854;2023-03-23T14:12:27;17.90;99.90
2453;DHT22;63678;47.994;7.854;2023-03-23T14:15:01;17.80;99.90
2453;DHT22;63678;47.994;7.854;2023-03-23T14:17:41;17.70;99.90
2453;DHT22;63678;47.994;7.854;2023-03-23T14:20:30;17.60;99.90
2453;DHT22;63678;47.994;7.854;2023-03-23T14:25:35;17.60;99.90
2453;DHT22;63678;47.994;7.854;2023-03-23T14:28:17;17.60;99.90
2453;DHT22;63678;47.994;7.854;2023-03-23T14:30:53;17.60;99.90
2453;DHT22;63678;47.994;7.854;2023-03-23T14:33:26;17.50;99.90
2453;DHT22;63678;47.994;7.854;2023-03-23T14:35:59;17.50;99.90
2453;DHT22;63678;47.994;7.854;2023-03-23T14:41:03;17.40;99.90
2453;DHT22;63678;47.994;7.854;2023-03-23T14:43:35;17.50;99.90
2453;DHT22;63678;47.994;7.854;2023-03-23T14:46:10;17.40;99.90
2453;DHT22;63678;47.994;7.854;2023-03-23T14:48:41;17.40;99.90
2453;DHT22;63678;47.994;7.854;2023-03-23T14:51:20;17.40;99.90
2453;DHT22;63678;47.994;7.854;2023-03-23T14:53:53;17.40;99.90
2453;DHT22;63678;47.994;7.854;2023-03-23T14:56:35;17.40;99.90
2453;DHT22;63678;47.994;7.854;2023-03-23T14:59:09;17.40;99.90
2453;DHT22;63678;47.994;7.854;2023-03-23T15:04:20;17.40;99.90
2453;DHT22;63678;47.994;7.854;2023-03-23T15:07:01;17.40;99.90
2453;DHT22;63678;47.994;7.854;2023-03-23T15:09:33;17.50;99.90
2453;DHT22;63678;47.994;7.854;2023-03-23T15:12:21;17.50;99.90
2453;DHT22;63678;47.994;7.854;2023-03-23T15:15:05;17.60;99.90
2453;DHT22;63678;47.994;7.854;2023-03-23T15:17:38;17.70;99.90
2453;DHT22;63678;47.994;7.854;2023-03-23T15:20:19;17.70;99.90
2453;DHT22;63678;47.994;7.854;2023-03-23T15:23:05;17.70;99.90
2453;DHT22;63678;47.994;7.854;2023-03-23T15:28:28;17.70;99.90
2453;DHT22;63678;47.994;7.854;2023-03-23T15:31:05;17.80;99.90
2453;DHT22;63678;47.994;7.854;2023-03-23T15:33:38;17.70;99.90
2453;DHT22;63678;47.994;7.854;2023-03-23T15:36:17;17.70;99.90
2453;DHT22;63678;47.994;7.854;2023-03-23T15:38:49;17.50;99.90
2453;DHT22;63678;47.994;7.854;2023-03-23T15:41:25;17.60;99.90
2453;DHT22;63678;47.994;7.854;2023-03-23T15:44:10;17.60;99.90
2453;DHT22;63678;47.994;7.854;2023-03-23T15:46:52;17.60;99.90
2453;DHT22;63678;47.994;7.854;2023-03-23T15:49:24;17.60;99.90
2453;DHT22;63678;47.994;7.854;2023-03-23T15:51:56;17.70;99.90
2453;DHT22;63678;47.994;7.854;2023-03-23T15:54:30;17.70;99.90
2453;DHT22;63678;47.994;7.854;2023-03-23T15:57:02;17.80;99.90
2453;DHT22;63678;47.994;7.854;2023-03-23T16:02:16;17.90;99.90
2453;DHT22;63678;47.994;7.854;2023-03-23T16:04:51;17.90;99.90
2453;DHT22;63678;47.994;7.854;2023-03-23T16:07:23;18.00;99.90
2453;DHT22;63678;47.994;7.854;2023-03-23T16:09:56;18.00;99.90
2453;DHT22;63678;47.994;7.854;2023-03-23T16:17:33;18.00;99.90
2453;DHT22;63678;47.994;7.854;2023-03-23T16:20:18;18.00;99.90
2453;DHT22;63678;47.994;7.854;2023-03-23T16:22:52;17.90;99.90
2453;DHT22;63678;47.994;7.854;2023-03-23T16:25:24;18.00;99.90
2453;DHT22;63678;47.994;7.854;2023-03-23T16:27:56;17.90;99.90
2453;DHT22;63678;47.994;7.854;2023-03-23T16:30:32;17.90;99.90
2453;DHT22;63678;47.994;7.854;2023-03-23T16:33:06;17.90;99.90
2453;DHT22;63678;47.994;7.854;2023-03-23T16:35:38;17.90;99.90
2453;DHT22;63678;47.994;7.854;2023-03-23T16:38:15;18.00;99.90
2453;DHT22;63678;47.994;7.854;2023-03-23T16:45:55;18.00;99.90
2453;DHT22;63678;47.994;7.854;2023-03-23T16:48:27;17.90;99.90
2453;DHT22;63678;47.994;7.854;2023-03-23T16:53:32;17.90;99.90
2453;DHT22;63678;47.994;7.854;2023-03-23T16:56:05;17.90;99.90
2453;DHT22;63678;47.994;7.854;2023-03-23T17:09:07;17.90;99.90
2453;DHT22;63678;47.994;7.854;2023-03-23T17:14:12;17.90;99.90
2453;DHT22;63678;47.994;7.854;2023-03-23T17:16:44;17.90;99.90
2453;DHT22;63678;47.994;7.854;2023-03-23T17:19:16;17.90;99.90
2453;DHT22;63678;47.994;7.854;2023-03-23T17:21:48;17.90;99.90
2453;DHT22;63678;47.994;7.854;2023-03-23T17:24:20;17.90;99.90
2453;DHT22;63678;47.994;7.854;2023-03-23T17:26:53;17.90;99.90
2453;DHT22;63678;47.994;7.854;2023-03-23T17:31:59;17.80;99.90
2453;DHT22;63678;47.994;7.854;2023-03-23T17:34:31;17.80;99.90
2453;DHT22;63678;47.994;7.854;2023-03-23T17:37:05;17.80;99.90
2453;DHT22;63678;47.994;7.854;2023-03-23T17:39:37;17.70;99.90
2453;DHT22;63678;47.994;7.854;2023-03-23T17:42:14;17.80;99.90
2453;DHT22;63678;47.994;7.854;2023-03-23T17:47:20;17.80;99.90
2453;DHT22;63678;47.994;7.854;2023-03-23T17:49:52;17.90;99.90
2453;DHT22;63678;47.994;7.854;2023-03-23T17:52:24;17.80;99.90
2453;DHT22;63678;47.994;7.854;2023-03-23T17:54:56;17.80;99.90
2453;DHT22;63678;47.994;7.854;2023-03-23T18:00:04;17.70;99.90
2453;DHT22;63678;47.994;7.854;2023-03-23T18:02:39;17.70;99.90
2453;DHT22;63678;47.994;7.854;2023-03-23T18:05:12;17.80;99.90
2453;DHT22;63678;47.994;7.854;2023-03-23T18:07:45;17.80;99.90
2453;DHT22;63678;47.994;7.854;2023-03-23T18:12:50;17.80;99.90
2453;DHT22;63678;47.994;7.854;2023-03-23T18:15:22;17.70;99.90
2453;DHT22;63678;47.994;7.854;2023-03-23T18:18:00;17.70;99.90
2453;DHT22;63678;47.994;7.854;2023-03-23T18:20:34;17.60;99.90
2453;DHT22;63678;47.994;7.854;2023-03-23T18:25:39;17.70;99.90
2453;DHT22;63678;47.994;7.854;2023-03-23T18:28:11;17.60;99.90
2453;DHT22;63678;47.994;7.854;2023-03-23T18:30:43;17.70;99.90
2453;DHT22;63678;47.994;7.854;2023-03-23T18:33:21;17.60;99.90
2453;DHT22;63678;47.994;7.854;2023-03-23T18:35:57;17.50;99.90
2453;DHT22;63678;47.994;7.854;2023-03-23T18:38:30;17.50;99.90
2453;DHT22;63678;47.994;7.854;2023-03-23T18:41:07;17.50;99.90
2453;DHT22;63678;47.994;7.854;2023-03-23T18:43:40;17.40;99.90
2453;DHT22;63678;47.994;7.854;2023-03-23T18:46:13;17.30;99.90
2453;DHT22;63678;47.994;7.854;2023-03-23T18:48:45;17.20;99.90
2453;DHT22;63678;47.994;7.854;2023-03-23T18:51:18;17.10;99.90
2453;DHT22;63678;47.994;7.854;2023-03-23T18:56:23;17.10;99.90
2453;DHT22;63678;47.994;7.854;2023-03-23T18:58:55;17.00;99.90
2453;DHT22;63678;47.994;7.854;2023-03-23T19:01:28;17.00;99.90
2453;DHT22;63678;47.994;7.854;2023-03-23T19:04:00;16.90;99.90
2453;DHT22;63678;47.994;7.854;2023-03-23T19:06:37;16.80;99.90
2453;DHT22;63678;47.994;7.854;2023-03-23T19:09:09;16.60;99.90
2453;DHT22;63678;47.994;7.854;2023-03-23T19:14:15;16.50;99.90
2453;DHT22;63678;47.994;7.854;2023-03-23T19:16:48;16.40;99.90
2453;DHT22;63678;47.994;7.854;2023-03-23T19:19:20;16.30;99.90
2453;DHT22;63678;47.994;7.854;2023-03-23T19:21:53;16.30;99.90
2453;DHT22;63678;47.994;7.854;2023-03-23T19:24:25;16.20;99.90
2453;DHT22;63678;47.994;7.854;2023-03-23T19:27:01;16.20;99.90
2453;DHT22;63678;47.994;7.854;2023-03-23T19:29:33;16.20;99.90
2453;DHT22;63678;47.994;7.854;2023-03-23T19:32:05;16.50;99.90
2453;DHT22;63678;47.994;7.854;2023-03-23T19:34:38;16.50;99.90
2453;DHT22;63678;47.994;7.854;2023-03-23T19:37:10;16.30;99.90
2453;DHT22;63678;47.994;7.854;2023-03-23T19:39:42;16.20;99.90
2453;DHT22;63678;47.994;7.854;2023-03-23T19:42:15;16.10;99.90
2453;DHT22;63678;47.994;7.854;2023-03-23T19:44:49;16.00;99.90
2453;DHT22;63678;47.994;7.854;2023-03-23T19:47:21;16.10;99.90
2453;DHT22;63678;47.994;7.854;2023-03-23T19:52:27;16.00;99.90
2453;DHT22;63678;47.994;7.854;2023-03-23T19:54:59;15.90;99.90
2453;DHT22;63678;47.994;7.854;2023-03-23T19:57:32;15.90;99.90
2453;DHT22;63678;47.994;7.854;2023-03-23T20:00:06;15.90;99.90
2453;DHT22;63678;47.994;7.854;2023-03-23T20:02:39;15.90;99.90
2453;DHT22;63678;47.994;7.854;2023-03-23T20:10:22;16.00;99.90
2453;DHT22;63678;47.994;7.854;2023-03-23T20:12:54;16.00;99.90
2453;DHT22;63678;47.994;7.854;2023-03-23T20:15:28;16.00;99.90
2453;DHT22;63678;47.994;7.854;2023-03-23T20:20:34;16.00;99.90
2453;DHT22;63678;47.994;7.854;2023-03-23T20:23:07;15.90;99.90
2453;DHT22;63678;47.994;7.854;2023-03-23T20:28:12;15.90;99.90
2453;DHT22;63678;47.994;7.854;2023-03-23T20:30:44;15.90;99.90
2453;DHT22;63678;47.994;7.854;2023-03-23T20:33:37;15.80;99.90
2453;DHT22;63678;47.994;7.854;2023-03-23T20:36:10;15.90;99.90
2453;DHT22;63678;47.994;7.854;2023-03-23T20:38:44;15.80;99.90
2453;DHT22;63678;47.994;7.854;2023-03-23T20:41:17;15.80;99.90
2453;DHT22;63678;47.994;7.854;2023-03-23T20:43:51;15.80;99.90
2453;DHT22;63678;47.994;7.854;2023-03-23T20:46:24;15.80;99.90
2453;DHT22;63678;47.994;7.854;2023-03-23T20:48:56;15.80;99.90
2453;DHT22;63678;47.994;7.854;2023-03-23T20:51:29;15.80;99.90